createdAt,value
2019-03-09T00:01:56.256Z,15.43
2019-03-09T00:04:25.121Z,16.00
2019-03-09T00:06:53.959Z,15.37
2019-03-09T00:09:22.829Z,15.47
2019-03-09T00:11:52.083Z,17.30
2019-03-09T00:14:25.746Z,16.43
2019-03-09T00:16:55.200Z,16.60
2019-03-09T00:19:24.660Z,17.17
2019-03-09T00:22:13.165Z,18.27
2019-03-09T00:25:21.342Z,18.07
2019-03-09T00:27:58.326Z,18.23
2019-03-09T00:30:34.075Z,17.80
2019-03-09T00:33:03.943Z,18.23
2019-03-09T00:35:34.601Z,19.13
2019-03-09T00:38:04.232Z,19.07
2019-03-09T00:40:35.442Z,20.50
2019-03-09T00:43:05.128Z,20.13
2019-03-09T00:45:34.546Z,19.03
2019-03-09T00:48:04.030Z,19.97
2019-03-09T00:50:34.906Z,20.30
2019-03-09T00:53:05.533Z,20.37
2019-03-09T00:55:35.102Z,21.17
2019-03-09T00:58:04.578Z,20.60
2019-03-09T01:00:35.121Z,21.47
2019-03-09T01:03:04.710Z,21.30
2019-03-09T01:05:34.152Z,21.50
2019-03-09T01:08:03.735Z,21.77
2019-03-09T01:10:34.563Z,22.10
2019-03-09T01:13:05.903Z,23.97
2019-03-09T01:15:35.255Z,21.07
2019-03-09T01:18:04.731Z,21.33
2019-03-09T01:20:34.283Z,21.60
2019-03-09T01:23:03.641Z,21.33
2019-03-09T01:25:33.375Z,21.30
2019-03-09T01:28:02.763Z,20.87
2019-03-09T01:30:32.214Z,22.87
2019-03-09T01:33:01.642Z,24.60
2019-03-09T01:35:32.492Z,23.90
2019-03-09T01:38:01.824Z,23.20
2019-03-09T01:40:31.231Z,25.10
2019-03-09T01:43:00.736Z,24.10
2019-03-09T01:45:30.340Z,26.57
2019-03-09T01:47:59.847Z,25.60
2019-03-09T01:50:29.299Z,24.30
2019-03-09T01:52:59.944Z,25.53
2019-03-09T01:55:29.574Z,24.17
2019-03-09T01:57:59.005Z,25.30
2019-03-09T02:00:28.416Z,25.10
2019-03-09T02:02:57.830Z,26.43
2019-03-09T02:05:27.191Z,26.20
2019-03-09T02:07:56.552Z,28.57
2019-03-09T02:10:26.079Z,28.43
2019-03-09T02:12:55.426Z,28.90
2019-03-09T02:15:25.168Z,28.63
2019-03-09T02:17:54.661Z,30.40
2019-03-09T02:20:24.128Z,28.70
2019-03-09T02:22:55.295Z,29.57
2019-03-09T02:25:25.996Z,30.70
2019-03-09T02:27:55.383Z,29.57
2019-03-09T02:30:24.925Z,31.80
2019-03-09T02:32:54.505Z,32.50
2019-03-09T02:35:23.941Z,32.63
2019-03-09T02:37:55.560Z,30.93
2019-03-09T02:40:26.388Z,31.60
2019-03-09T02:42:55.907Z,30.67
2019-03-09T02:45:27.350Z,31.20
2019-03-09T02:47:56.819Z,30.53
2019-03-09T02:50:26.257Z,32.70
2019-03-09T02:52:55.845Z,31.83
2019-03-09T02:55:25.299Z,33.50
2019-03-09T02:57:54.769Z,32.53
2019-03-09T03:00:24.221Z,32.83
2019-03-09T03:03:00.331Z,31.83
2019-03-09T03:05:29.793Z,31.13
2019-03-09T03:07:59.127Z,32.07
2019-03-09T03:10:29.615Z,31.70
2019-03-09T03:12:58.988Z,30.90
2019-03-09T03:15:38.086Z,31.00
2019-03-09T03:18:08.092Z,31.10
2019-03-09T03:20:37.524Z,32.03
2019-03-09T03:23:08.449Z,33.00
2019-03-09T03:25:37.901Z,31.77
2019-03-09T03:28:08.586Z,32.03
2019-03-09T03:30:38.028Z,29.90
2019-03-09T03:33:07.491Z,30.43
2019-03-09T03:35:36.948Z,31.60
2019-03-09T03:38:06.481Z,31.23
2019-03-09T03:40:36.306Z,31.10
2019-03-09T03:43:06.923Z,29.90
2019-03-09T03:45:36.462Z,31.30
2019-03-09T03:48:05.926Z,30.90
2019-03-09T03:50:36.574Z,31.27
2019-03-09T03:53:06.032Z,29.67
2019-03-09T03:55:35.678Z,31.90
2019-03-09T03:58:05.359Z,30.70
2019-03-09T04:00:34.832Z,32.97
2019-03-09T04:03:05.609Z,29.93
2019-03-09T04:05:54.036Z,32.43
2019-03-09T04:08:23.978Z,31.60
2019-03-09T04:10:53.629Z,32.07
2019-03-09T04:13:23.034Z,33.47
2019-03-09T04:15:52.366Z,31.50
2019-03-09T04:18:21.839Z,31.77
2019-03-09T04:20:51.848Z,32.60
2019-03-09T04:23:21.226Z,31.97
2019-03-09T04:25:51.827Z,32.93
2019-03-09T04:28:22.410Z,31.53
2019-03-09T04:30:53.648Z,31.67
2019-03-09T04:33:23.057Z,32.20
2019-03-09T04:35:52.602Z,30.80
2019-03-09T04:38:22.067Z,31.57
2019-03-09T04:40:51.505Z,31.73
2019-03-09T04:43:21.006Z,31.70
2019-03-09T04:45:50.472Z,30.87
2019-03-09T04:48:19.959Z,32.47
2019-03-09T04:50:49.418Z,32.33
2019-03-09T04:53:18.783Z,31.20
2019-03-09T04:55:49.553Z,31.17
2019-03-09T04:58:19.068Z,31.07
2019-03-09T05:00:48.566Z,31.33
2019-03-09T05:03:19.059Z,30.70
2019-03-09T05:05:49.998Z,31.73
2019-03-09T05:08:40.669Z,31.30
2019-03-09T05:11:16.593Z,30.63
2019-03-09T05:13:58.067Z,32.17
2019-03-09T05:16:27.669Z,30.30
2019-03-09T05:18:57.104Z,31.53
2019-03-09T05:21:26.910Z,31.93
2019-03-09T05:23:56.479Z,31.43
2019-03-09T05:26:26.843Z,31.27
2019-03-09T05:28:56.271Z,30.83
2019-03-09T05:31:27.453Z,30.40
2019-03-09T05:33:56.859Z,32.63
2019-03-09T05:36:26.295Z,31.60
2019-03-09T05:38:55.761Z,31.87
2019-03-09T05:41:25.283Z,31.83
2019-03-09T05:43:57.162Z,32.53
2019-03-09T05:46:26.607Z,31.37
2019-03-09T05:48:57.208Z,29.23
2019-03-09T05:51:27.847Z,30.30
2019-03-09T05:53:57.249Z,31.77
2019-03-09T05:56:26.951Z,31.57
2019-03-09T05:58:56.439Z,32.60
2019-03-09T06:01:25.905Z,32.90
2019-03-09T06:03:55.333Z,30.93
2019-03-09T06:06:24.808Z,30.97
2019-03-09T06:08:54.243Z,30.57
2019-03-09T06:11:23.845Z,29.27
2019-03-09T06:13:53.215Z,29.03
2019-03-09T06:16:22.675Z,29.53
2019-03-09T06:18:52.234Z,28.30
2019-03-09T06:21:21.622Z,29.43
2019-03-09T06:23:52.749Z,29.73
2019-03-09T06:26:22.130Z,29.00
2019-03-09T06:28:53.282Z,29.33
2019-03-09T06:31:22.762Z,28.17
2019-03-09T06:33:54.416Z,28.17
2019-03-09T06:37:10.691Z,28.30
2019-03-09T06:39:47.619Z,29.33
2019-03-09T06:42:46.803Z,31.37
2019-03-09T06:45:17.699Z,31.27
2019-03-09T06:47:48.242Z,32.60
2019-03-09T06:50:21.614Z,32.10
2019-03-09T06:52:50.965Z,31.37
2019-03-09T06:55:20.304Z,29.97
2019-03-09T06:58:08.739Z,30.53
2019-03-09T07:00:57.230Z,23.63
2019-03-09T07:03:27.887Z,19.90
2019-03-09T07:05:57.335Z,15.77
2019-03-09T07:08:45.777Z,25.57
2019-03-09T07:11:15.197Z,20.90
2019-03-09T07:13:52.764Z,16.77
2019-03-09T07:16:17.316Z,23.43
2019-03-09T07:18:46.803Z,25.90
2019-03-09T07:21:17.430Z,18.13
2019-03-09T07:23:46.871Z,21.80
2019-03-09T07:26:18.078Z,19.57
2019-03-09T07:28:47.560Z,17.43
2019-03-09T07:31:16.995Z,13.67
2019-03-09T07:33:46.334Z,13.93
2019-03-09T07:36:15.707Z,27.27
2019-03-09T07:38:45.227Z,25.83
2019-03-09T07:41:17.309Z,18.87
2019-03-09T07:43:47.876Z,16.20
2019-03-09T07:46:17.293Z,13.93
2019-03-09T07:48:46.642Z,11.47
2019-03-09T07:51:18.253Z,23.87
2019-03-09T07:53:48.194Z,24.30
2019-03-09T07:56:17.675Z,25.47
2019-03-09T07:58:47.277Z,24.60
2019-03-09T08:01:16.717Z,31.57
2019-03-09T08:03:46.223Z,27.90
2019-03-09T08:06:15.664Z,25.57
2019-03-09T08:08:45.134Z,22.97
2019-03-09T08:11:14.714Z,12.63
2019-03-09T08:13:44.068Z,15.17
2019-03-09T08:16:14.807Z,22.70
2019-03-09T08:18:45.297Z,23.33
2019-03-09T08:21:14.239Z,21.93
2019-03-09T08:23:43.263Z,21.47
2019-03-09T08:26:12.514Z,20.37
2019-03-09T08:28:41.885Z,21.90
2019-03-09T08:31:10.665Z,20.60
2019-03-09T08:33:39.476Z,22.10
2019-03-09T08:36:08.310Z,22.53
2019-03-09T08:38:37.091Z,22.90
2019-03-09T08:41:05.876Z,23.67
2019-03-09T08:43:34.732Z,22.63
2019-03-09T08:46:03.637Z,23.17
2019-03-09T08:48:32.454Z,25.90
2019-03-09T08:51:01.315Z,26.63
2019-03-09T08:53:31.262Z,27.60
2019-03-09T08:56:00.266Z,31.83
2019-03-09T08:58:29.044Z,30.17
2019-03-09T09:00:59.139Z,28.83
2019-03-09T09:03:27.937Z,29.10
2019-03-09T09:05:57.297Z,30.73
2019-03-09T09:08:26.169Z,30.60
2019-03-09T09:10:55.163Z,33.33
2019-03-09T09:13:23.977Z,33.00
2019-03-09T09:15:52.808Z,29.00
2019-03-09T09:18:21.615Z,30.63
2019-03-09T09:20:50.426Z,29.27
2019-03-09T09:23:19.275Z,27.07
2019-03-09T09:25:48.017Z,28.53
2019-03-09T09:28:16.761Z,29.27
2019-03-09T09:30:45.963Z,29.60
2019-03-09T09:33:14.793Z,30.57
2019-03-09T09:35:43.780Z,31.97
2019-03-09T09:38:12.573Z,21.70
2019-03-09T09:40:41.291Z,30.80
2019-03-09T09:43:11.365Z,30.70
2019-03-09T09:45:40.332Z,31.50
2019-03-09T09:48:09.350Z,32.17
2019-03-09T09:50:38.184Z,33.63
2019-03-09T09:53:06.960Z,32.63
2019-03-09T09:55:36.789Z,26.97
2019-03-09T09:58:05.511Z,33.00
2019-03-09T10:00:35.297Z,34.30
2019-03-09T10:03:04.111Z,32.83
2019-03-09T10:05:32.881Z,31.83
2019-03-09T10:08:02.836Z,28.33
2019-03-09T10:10:31.718Z,40.03
2019-03-09T10:13:00.455Z,33.60
2019-03-09T10:15:29.419Z,31.23
2019-03-09T10:17:58.161Z,32.23
2019-03-09T10:20:26.921Z,32.63
2019-03-09T10:23:03.628Z,39.37
2019-03-09T10:25:27.160Z,30.40
2019-03-09T10:27:57.750Z,29.67
2019-03-09T10:30:27.212Z,30.23
2019-03-09T10:32:57.184Z,29.20
2019-03-09T10:35:26.814Z,31.30
2019-03-09T10:37:56.226Z,19.23
2019-03-09T10:40:25.631Z,33.33
2019-03-09T10:42:55.079Z,31.87
2019-03-09T10:45:25.773Z,33.30
2019-03-09T10:47:55.138Z,33.87
2019-03-09T10:50:25.960Z,21.63
2019-03-09T10:52:55.805Z,33.07
2019-03-09T10:55:25.188Z,35.10
2019-03-09T10:57:54.601Z,34.37
2019-03-09T11:00:27.845Z,33.67
2019-03-09T11:02:58.545Z,33.13
2019-03-09T11:05:28.442Z,31.60
2019-03-09T11:07:57.262Z,33.00
2019-03-09T11:10:26.129Z,30.70
2019-03-09T11:12:54.881Z,27.80
2019-03-09T11:15:23.735Z,28.13
2019-03-09T11:17:52.520Z,38.60
2019-03-09T11:20:21.366Z,39.63
2019-03-09T11:22:50.541Z,44.97
2019-03-09T11:25:19.270Z,41.87
2019-03-09T11:27:48.029Z,40.47
2019-03-09T11:30:21.085Z,39.63
2019-03-09T11:32:50.032Z,26.70
2019-03-09T11:35:19.946Z,39.67
2019-03-09T11:37:49.121Z,39.20
2019-03-09T11:40:17.914Z,37.03
2019-03-09T11:42:46.737Z,30.73
2019-03-09T11:45:16.377Z,37.13
2019-03-09T11:47:46.380Z,37.63
2019-03-09T11:50:35.793Z,36.40
2019-03-09T11:53:04.644Z,34.50
2019-03-09T11:55:33.440Z,37.63
2019-03-09T11:58:02.271Z,39.10
2019-03-09T12:00:34.927Z,32.73
2019-03-09T12:03:03.745Z,38.27
2019-03-09T12:05:34.469Z,38.33
2019-03-09T12:08:03.835Z,37.60
2019-03-09T12:10:33.177Z,37.63
2019-03-09T12:13:02.583Z,33.93
2019-03-09T12:15:31.995Z,35.13
2019-03-09T12:18:01.373Z,33.40
2019-03-09T12:20:31.387Z,33.17
2019-03-09T12:23:20.385Z,32.30
2019-03-09T12:25:49.859Z,32.07
2019-03-09T12:28:19.212Z,25.23
2019-03-09T12:30:48.632Z,30.33
2019-03-09T12:33:18.018Z,29.57
2019-03-09T12:35:47.374Z,30.23
2019-03-09T12:38:17.132Z,29.57
2019-03-09T12:40:48.267Z,23.93
2019-03-09T12:43:17.781Z,25.30
2019-03-09T12:45:47.794Z,24.30
2019-03-09T12:48:17.383Z,26.33
2019-03-09T12:50:46.765Z,25.67
2019-03-09T12:53:16.198Z,20.90
2019-03-09T12:55:45.659Z,25.90
2019-03-09T12:58:15.043Z,26.07
2019-03-09T13:00:44.423Z,24.27
2019-03-09T13:03:13.809Z,26.47
2019-03-09T13:05:46.605Z,27.10
2019-03-09T13:08:15.549Z,26.27
2019-03-09T13:10:46.226Z,24.40
2019-03-09T13:13:15.831Z,21.37
2019-03-09T13:15:45.349Z,22.27
2019-03-09T13:18:14.968Z,23.73
2019-03-09T13:20:44.499Z,24.33
2019-03-09T13:23:14.295Z,23.77
2019-03-09T13:25:43.875Z,22.93
2019-03-09T13:28:12.676Z,22.23
2019-03-09T13:31:00.586Z,18.40
2019-03-09T13:33:29.375Z,17.23
2019-03-09T13:35:58.095Z,16.93
2019-03-09T13:38:26.889Z,22.40
2019-03-09T13:40:56.058Z,23.07
2019-03-09T13:43:24.815Z,24.90
2019-03-09T13:45:53.602Z,24.50
2019-03-09T13:48:23.416Z,22.33
2019-03-09T13:50:52.240Z,22.23
2019-03-09T13:53:22.087Z,20.20
2019-03-09T13:55:52.180Z,25.07
2019-03-09T13:58:21.164Z,25.60
2019-03-09T14:00:50.061Z,25.17
2019-03-09T14:03:18.881Z,25.57
2019-03-09T14:05:47.624Z,27.60
2019-03-09T14:08:16.496Z,29.33
2019-03-09T14:10:45.418Z,29.57
2019-03-09T14:13:14.239Z,29.23
2019-03-09T14:15:43.034Z,29.23
2019-03-09T14:18:11.806Z,30.27
2019-03-09T14:20:40.568Z,34.20
2019-03-09T14:23:10.567Z,39.53
2019-03-09T14:25:39.559Z,42.17
2019-03-09T14:28:08.650Z,30.43
2019-03-09T14:30:37.586Z,35.90
2019-03-09T14:33:06.691Z,36.00
2019-03-09T14:35:35.593Z,33.33
2019-03-09T14:38:04.450Z,33.00
2019-03-09T14:40:33.346Z,30.17
2019-03-09T14:43:26.562Z,32.73
2019-03-09T14:45:55.521Z,28.73
2019-03-09T14:48:24.510Z,27.60
2019-03-09T14:50:53.305Z,25.00
2019-03-09T14:53:22.063Z,27.03
2019-03-09T14:55:50.982Z,24.10
2019-03-09T14:58:19.903Z,21.27
2019-03-09T15:00:48.702Z,25.13
2019-03-09T15:03:17.429Z,18.40
2019-03-09T15:05:46.232Z,17.97
2019-03-09T15:08:15.045Z,16.17
2019-03-09T15:10:43.864Z,14.47
2019-03-09T15:13:13.036Z,14.83
2019-03-09T15:15:42.968Z,12.70
2019-03-09T15:18:11.772Z,14.67
2019-03-09T15:20:40.881Z,14.20
2019-03-09T15:23:09.610Z,12.73
2019-03-09T15:25:38.313Z,13.97
2019-03-09T15:28:08.255Z,12.87
2019-03-09T15:30:37.092Z,11.37
2019-03-09T15:33:05.924Z,11.77
2019-03-09T15:35:34.830Z,12.40
2019-03-09T15:38:03.767Z,10.93
2019-03-09T15:40:32.610Z,9.93
2019-03-09T15:43:02.481Z,8.60
2019-03-09T15:45:32.083Z,8.40
2019-03-09T15:48:00.904Z,9.20
2019-03-09T15:50:30.935Z,8.60
2019-03-09T15:52:59.705Z,8.70
2019-03-09T15:55:28.663Z,7.57
2019-03-09T15:57:57.995Z,7.10
2019-03-09T16:00:26.891Z,7.73
2019-03-09T16:02:55.751Z,7.03
2019-03-09T16:05:25.134Z,7.30
2019-03-09T16:07:54.149Z,8.00
2019-03-09T16:10:23.421Z,7.47
2019-03-09T16:12:52.922Z,6.50
2019-03-09T16:15:22.191Z,6.73
2019-03-09T16:17:51.597Z,6.50
2019-03-09T16:20:21.339Z,5.80
2019-03-09T16:22:50.608Z,5.80
2019-03-09T16:25:19.915Z,6.20
2019-03-09T16:27:48.943Z,6.13
2019-03-09T16:30:18.748Z,5.30
2019-03-09T16:32:48.106Z,5.67
2019-03-09T16:35:17.332Z,6.33
2019-03-09T16:37:47.816Z,5.47
2019-03-09T16:40:17.104Z,5.53
2019-03-09T16:42:46.485Z,5.17
2019-03-09T16:45:15.958Z,5.47
2019-03-09T16:47:45.757Z,5.80
2019-03-09T16:50:15.305Z,5.77
2019-03-09T16:52:44.515Z,4.43
2019-03-09T16:55:13.537Z,5.07
2019-03-09T16:57:42.822Z,5.13
2019-03-09T17:00:13.441Z,5.10
2019-03-09T17:02:42.192Z,5.47
2019-03-09T17:05:11.446Z,6.00
2019-03-09T17:07:40.529Z,5.57
2019-03-09T17:10:09.521Z,5.30
2019-03-09T17:12:38.538Z,4.60
2019-03-09T17:15:08.017Z,5.10
2019-03-09T17:17:36.917Z,5.03
2019-03-09T17:20:06.717Z,4.37
2019-03-09T17:22:35.971Z,5.30
2019-03-09T17:25:05.209Z,4.17
2019-03-09T17:27:34.936Z,5.30
2019-03-09T17:30:24.384Z,4.70
2019-03-09T17:32:53.833Z,5.00
2019-03-09T17:35:23.239Z,5.37
2019-03-09T17:37:52.559Z,5.10
2019-03-09T17:40:22.018Z,4.40
2019-03-09T17:42:51.474Z,4.60
2019-03-09T17:45:20.882Z,4.20
2019-03-09T17:47:50.532Z,4.70
2019-03-09T17:50:20.357Z,4.80
2019-03-09T17:52:49.586Z,4.20
2019-03-09T17:55:19.063Z,4.47
2019-03-09T17:57:48.489Z,5.23
2019-03-09T18:00:19.119Z,5.00
2019-03-09T18:02:48.104Z,4.57
2019-03-09T18:05:18.778Z,4.80
2019-03-09T18:07:47.704Z,4.90
2019-03-09T18:10:21.754Z,5.30
2019-03-09T18:12:50.523Z,5.20
2019-03-09T18:15:20.313Z,5.10
2019-03-09T18:17:50.020Z,5.13
2019-03-09T18:20:19.470Z,4.67
2019-03-09T18:22:49.014Z,4.77
2019-03-09T18:25:18.797Z,5.60
2019-03-09T18:27:48.381Z,4.70
2019-03-09T18:30:17.758Z,5.30
2019-03-09T18:32:48.532Z,5.77
2019-03-09T18:35:18.197Z,5.50
2019-03-09T18:37:48.095Z,5.83
2019-03-09T18:40:17.534Z,6.07
2019-03-09T18:42:47.026Z,6.27
2019-03-09T18:45:17.042Z,6.03
2019-03-09T18:47:46.715Z,6.50
2019-03-09T18:50:18.247Z,6.17
2019-03-09T18:52:48.662Z,6.57
2019-03-09T18:55:18.388Z,6.70
2019-03-09T18:57:48.144Z,6.43
2019-03-09T19:00:18.089Z,6.30
2019-03-09T19:02:47.587Z,5.90
2019-03-09T19:05:17.031Z,6.30
2019-03-09T19:07:46.642Z,5.80
2019-03-09T19:10:16.495Z,6.30
2019-03-09T19:12:45.983Z,5.93
2019-03-09T19:15:15.810Z,5.40
2019-03-09T19:17:45.441Z,6.40
2019-03-09T19:20:15.101Z,5.93
2019-03-09T19:22:44.711Z,5.77
2019-03-09T19:25:14.535Z,6.10
2019-03-09T19:27:44.104Z,5.83
2019-03-09T19:30:15.201Z,6.07
2019-03-09T19:32:45.055Z,5.43
2019-03-09T19:35:14.598Z,5.90
2019-03-09T19:37:44.040Z,5.70
2019-03-09T19:40:14.849Z,6.13
2019-03-09T19:42:45.011Z,5.70
2019-03-09T19:45:15.019Z,5.57
2019-03-09T19:47:45.044Z,5.83
2019-03-09T19:50:16.437Z,6.37
2019-03-09T19:52:46.026Z,6.13
2019-03-09T19:55:16.714Z,6.30
2019-03-09T19:57:46.535Z,6.50
2019-03-09T20:00:16.779Z,7.37
2019-03-09T20:02:46.934Z,6.87
2019-03-09T20:05:17.000Z,6.63
2019-03-09T20:07:46.079Z,6.90
2019-03-09T20:10:16.172Z,9.40
2019-03-09T20:12:45.391Z,6.80
2019-03-09T20:15:15.967Z,7.87
2019-03-09T20:17:45.938Z,7.00
2019-03-09T20:20:16.100Z,7.17
2019-03-09T20:22:46.094Z,6.67
2019-03-09T20:25:16.057Z,7.50
2019-03-09T20:27:45.748Z,7.37
2019-03-09T20:30:16.840Z,7.13
2019-03-09T20:32:46.620Z,6.90
2019-03-09T20:35:16.747Z,6.47
2019-03-09T20:37:46.310Z,6.67
2019-03-09T20:40:16.048Z,6.90
2019-03-09T20:42:45.732Z,7.23
2019-03-09T20:45:15.895Z,7.87
2019-03-09T20:47:45.864Z,7.67
2019-03-09T20:50:15.674Z,7.57
2019-03-09T20:52:45.275Z,8.17
2019-03-09T20:55:14.756Z,7.03
2019-03-09T20:57:43.736Z,8.53
2019-03-09T21:00:14.075Z,8.77
2019-03-09T21:02:43.054Z,7.90
2019-03-09T21:05:12.025Z,7.63
2019-03-09T21:07:40.974Z,7.67
2019-03-09T21:10:10.562Z,8.73
2019-03-09T21:12:53.448Z,7.67
2019-03-09T21:15:22.356Z,8.00
2019-03-09T21:17:51.332Z,7.53
2019-03-09T21:20:20.099Z,6.87
2019-03-09T21:22:49.011Z,8.17
2019-03-09T21:25:17.770Z,7.27
2019-03-09T21:27:46.528Z,7.83
2019-03-09T21:30:15.468Z,7.97
2019-03-09T21:32:44.341Z,7.23
2019-03-09T21:35:13.081Z,7.70
2019-03-09T21:37:41.937Z,8.37
2019-03-09T21:40:10.737Z,8.07
2019-03-09T21:42:39.502Z,7.50
2019-03-09T21:45:08.393Z,8.50
2019-03-09T21:47:37.174Z,8.27
2019-03-09T21:50:06.537Z,8.00
2019-03-09T21:52:35.404Z,7.70
2019-03-09T21:55:04.183Z,8.27
2019-03-09T21:57:32.911Z,9.40
2019-03-09T22:00:02.396Z,9.13
2019-03-09T22:02:31.194Z,8.23
2019-03-09T22:05:00.003Z,8.80
2019-03-09T22:07:28.803Z,8.00
2019-03-09T22:09:57.590Z,7.90
2019-03-09T22:12:26.386Z,7.50
2019-03-09T22:14:55.451Z,8.30
2019-03-09T22:17:24.182Z,7.83
2019-03-09T22:19:53.001Z,8.00
2019-03-09T22:22:21.833Z,7.50
2019-03-09T22:24:50.636Z,7.83
2019-03-09T22:27:19.364Z,8.13
2019-03-09T22:29:48.175Z,8.37
2019-03-09T22:32:18.821Z,7.83
2019-03-09T22:34:47.553Z,8.13
2019-03-09T22:37:16.396Z,8.27
2019-03-09T22:39:45.217Z,8.00
2019-03-09T22:42:13.964Z,7.70
2019-03-09T22:44:42.802Z,7.97
2019-03-09T22:47:12.182Z,8.53
2019-03-09T22:49:41.075Z,8.03
2019-03-09T22:52:10.191Z,8.30
2019-03-09T22:54:38.922Z,8.13
2019-03-09T22:57:07.655Z,7.83
2019-03-09T22:59:36.489Z,7.90
2019-03-09T23:02:06.032Z,8.53
2019-03-09T23:04:34.771Z,7.97
2019-03-09T23:07:03.580Z,7.57
2019-03-09T23:09:32.371Z,8.13
2019-03-09T23:12:01.171Z,8.60
2019-03-09T23:14:30.057Z,7.57
2019-03-09T23:16:58.795Z,6.87
2019-03-09T23:19:27.558Z,6.43
2019-03-09T23:21:56.345Z,7.03
2019-03-09T23:24:25.129Z,7.50
2019-03-09T23:26:53.938Z,7.50
2019-03-09T23:29:22.716Z,7.10
2019-03-09T23:31:51.406Z,7.03
2019-03-09T23:34:20.231Z,7.10
2019-03-09T23:36:49.041Z,7.00
2019-03-09T23:39:17.777Z,7.63
2019-03-09T23:41:46.521Z,7.70
2019-03-09T23:44:15.335Z,7.27
2019-03-09T23:46:44.160Z,7.90
2019-03-09T23:49:12.932Z,7.90
2019-03-09T23:51:41.980Z,8.20
2019-03-09T23:54:10.757Z,7.77
2019-03-09T23:56:39.461Z,8.23
2019-03-09T23:59:08.229Z,8.60
